Absaraka, ND (58002)

9:45 AM CST on December 03, 2016 (GMT -0600)
Home of the Absaraka Crows | | Change Station

Elev 1066 ft 46.98 °N, 97.39 °W | Updated 12 seconds ago

Overcast
Overcast
28.0 °F
Feels Like 19 °F
N
9.2
Wind Variable Wind from SE
Gusts 11.4 mph

Today
High -- | Low -- °F
--% Chance of Precip.
Yesterday
High -- | Low -- °F
Precip. -- in
Pressure 30.24 in
Visibility 10.0 miles
Clouds Overcast 1900 ft
Windchill 19 °F
Dew Point 26 °F
Humidity 92%
Rainfall 0.00 in
Snow Depth Not available.
7:57 AM 4:41 PM
Waxing Crescent, 15% visible
METAR KFAR 031453Z 16010KT 10SM OVC019 M02/M07 A3020 RMK AO2 SLP240 T10221067 58009
Pressure 30.24 in
Visibility 10.0 miles
Clouds Overcast 1900 ft
Windchill 19 °F
Dew Point 26 °F
Humidity 92%
Rainfall 0.00 in
Snow Depth Not available.
7:57 AM 4:41 PM
Waxing Crescent, 15% visible
METAR KFAR 031453Z 16010KT 10SM OVC019 M02/M07 A3020 RMK AO2 SLP240 T10221067 58009

10-Day Weather Forecast

Almanac

Astronomy

Dec. 03, 2016 Rise Set
Actual Time
Civil Twilight
Nautical Twilight
Astronomical Twilight
Moon
Length of Visible Light
Length of Day
Tomorrow will be .
, % of the Moon is Illuminated

Today's Extremes

State Highs State Lows

Community

WunderPhotos

Upload Photos

1,955,427 photos uploaded!

WunderBlog® & News

Nearby

Air Quality

  Air Quality AQ Index Pollutant
Not available.

Snow Depth

Station Depth Elevation

Earthquake Activity

City Distance Mag. Time & Date
Minimum magnitude displayed is 2.5.

Coastal Water Temperatures

Place Temperature

Stations

Nearby Weather Stations

Station Location Temp. Windchill Dew Point Humidity Wind Precip. Elev Updated Type
                   

Watches & Warnings

There are currently no watches in effect.